createdAt,value
2022-12-31T00:04:21.495Z,12.40
2022-12-31T00:09:30.392Z,13.40
2022-12-31T00:14:32.943Z,13.07
2022-12-31T00:19:35.961Z,15.27
2022-12-31T00:24:39.870Z,13.93
2022-12-31T00:29:43.025Z,11.50
2022-12-31T00:34:45.938Z,10.73
2022-12-31T00:39:48.571Z,8.73
2022-12-31T00:44:52.020Z,8.40
2022-12-31T00:49:57.205Z,9.23
2022-12-31T00:55:03.255Z,9.07
2022-12-31T01:00:07.934Z,7.07
2022-12-31T01:05:10.680Z,9.40
2022-12-31T01:10:33.307Z,6.70
2022-12-31T01:15:44.295Z,6.40
2022-12-31T01:20:51.046Z,6.68
2022-12-31T01:25:56.918Z,11.75
2022-12-31T01:31:03.214Z,16.60
2022-12-31T01:36:21.890Z,12.68
2022-12-31T01:41:37.435Z,17.98
2022-12-31T01:46:59.623Z,15.48
2022-12-31T01:52:32.571Z,13.85
2022-12-31T01:57:38.688Z,24.30
2022-12-31T02:02:41.442Z,25.02
2022-12-31T02:08:04.397Z,38.80
2022-12-31T02:13:07.664Z,37.50
2022-12-31T02:18:44.460Z,24.13
2022-12-31T02:24:13.017Z,26.65
2022-12-31T02:29:29.802Z,23.00
2022-12-31T02:34:42.092Z,26.98
2022-12-31T02:39:46.340Z,19.48
2022-12-31T02:44:48.750Z,17.85
2022-12-31T02:50:12.469Z,19.15
2022-12-31T02:55:50.662Z,17.42
2022-12-31T03:01:14.122Z,16.88
2022-12-31T03:06:18.934Z,14.97
2022-12-31T03:11:40.190Z,6.93
2022-12-31T03:16:42.586Z,4.95
2022-12-31T03:22:04.928Z,4.28
2022-12-31T03:27:07.502Z,4.00
2022-12-31T03:32:10.388Z,4.05
2022-12-31T03:37:13.485Z,4.18
2022-12-31T03:42:15.934Z,3.50
2022-12-31T03:47:18.303Z,3.33
2022-12-31T03:52:21.944Z,2.65
2022-12-31T03:57:24.523Z,2.87
2022-12-31T04:02:29.361Z,2.73
2022-12-31T04:07:36.513Z,2.92
2022-12-31T04:12:39.653Z,2.30
2022-12-31T04:17:42.032Z,2.60
2022-12-31T04:22:44.518Z,2.40
2022-12-31T04:27:46.910Z,2.53
2022-12-31T04:32:49.371Z,2.60
2022-12-31T04:37:52.510Z,2.28
2022-12-31T04:42:55.483Z,2.30
2022-12-31T04:47:58.020Z,2.53
2022-12-31T04:53:00.477Z,2.47
2022-12-31T04:58:09.547Z,2.30
2022-12-31T05:03:12.993Z,2.42
2022-12-31T05:13:17.997Z,2.03
2022-12-31T05:18:20.511Z,2.30
2022-12-31T05:23:24.445Z,2.22
2022-12-31T05:28:27.002Z,2.78
2022-12-31T05:33:29.870Z,2.80
2022-12-31T05:38:35.013Z,3.22
2022-12-31T05:43:37.553Z,2.28
2022-12-31T05:48:40.078Z,2.60
2022-12-31T05:53:42.819Z,2.53
2022-12-31T05:58:45.161Z,2.97
2022-12-31T06:03:47.846Z,2.70
2022-12-31T06:08:52.826Z,3.00
2022-12-31T06:13:57.485Z,2.60
2022-12-31T06:18:59.877Z,2.72
2022-12-31T06:24:06.606Z,4.20
2022-12-31T06:29:11.618Z,11.98
2022-12-31T06:34:16.294Z,5.70
2022-12-31T06:39:18.717Z,5.40
2022-12-31T06:44:22.698Z,4.05
2022-12-31T06:49:29.425Z,3.60
2022-12-31T06:54:34.035Z,3.13
2022-12-31T06:59:36.781Z,3.45
2022-12-31T07:05:14.316Z,3.15
2022-12-31T07:10:38.302Z,3.92
2022-12-31T07:20:55.806Z,16.77
2022-12-31T07:26:06.428Z,6.70
2022-12-31T07:31:31.670Z,3.88
2022-12-31T07:37:12.112Z,3.53
2022-12-31T07:42:21.943Z,3.38
2022-12-31T07:47:27.339Z,3.83
2022-12-31T07:52:37.277Z,4.55
2022-12-31T07:57:49.887Z,3.92
2022-12-31T08:03:27.987Z,3.80
2022-12-31T08:08:42.372Z,3.15
2022-12-31T08:13:47.811Z,3.13
2022-12-31T08:18:59.117Z,3.15
2022-12-31T08:24:23.713Z,3.13
2022-12-31T08:42:25.400Z,3.10
2022-12-31T08:47:42.958Z,2.75
2022-12-31T08:52:46.565Z,4.00
2022-12-31T08:58:01.210Z,3.10
2022-12-31T09:03:38.211Z,5.78
2022-12-31T09:09:16.651Z,5.20
2022-12-31T09:14:32.767Z,18.25
2022-12-31T09:19:39.676Z,12.88
2022-12-31T09:24:45.780Z,5.07
2022-12-31T09:35:54.996Z,6.70
2022-12-31T09:41:36.901Z,6.40
2022-12-31T09:47:10.859Z,3.75
2022-12-31T09:52:49.013Z,4.93
2022-12-31T09:58:31.067Z,11.55
2022-12-31T10:03:38.756Z,17.98
2022-12-31T10:09:05.615Z,19.20
2022-12-31T10:14:45.365Z,28.60
2022-12-31T10:20:45.266Z,6.18
2022-12-31T10:26:29.908Z,3.40
2022-12-31T10:32:05.929Z,3.40
2022-12-31T10:37:50.461Z,3.30
2022-12-31T10:43:46.101Z,3.30
2022-12-31T10:49:45.224Z,5.13
2022-12-31T10:56:03.773Z,2.58
2022-12-31T11:01:20.287Z,2.47
2022-12-31T11:20:15.762Z,3.45
2022-12-31T11:26:14.140Z,3.10
2022-12-31T11:31:42.098Z,2.60
2022-12-31T11:37:31.402Z,3.15
2022-12-31T11:43:36.967Z,8.27
2022-12-31T11:48:55.473Z,5.15
2022-12-31T11:54:26.451Z,6.25
2022-12-31T11:59:29.564Z,6.45
2022-12-31T12:04:32.179Z,7.30
2022-12-31T12:09:44.013Z,5.82
2022-12-31T12:15:28.286Z,8.38
2022-12-31T12:20:39.992Z,9.40
2022-12-31T12:25:44.935Z,16.38
2022-12-31T12:30:57.060Z,8.10
2022-12-31T12:36:13.542Z,6.07
2022-12-31T12:41:28.019Z,5.78
2022-12-31T12:46:47.979Z,9.20
2022-12-31T12:52:22.277Z,6.05
2022-12-31T12:57:33.203Z,5.95
2022-12-31T13:02:54.281Z,8.80
2022-12-31T13:08:28.870Z,12.68
2022-12-31T13:14:11.514Z,9.15
2022-12-31T13:19:48.659Z,8.07
2022-12-31T13:25:03.159Z,5.40
2022-12-31T13:30:33.420Z,213.88
2022-12-31T13:35:58.871Z,120.95
2022-12-31T13:41:35.044Z,110.05
2022-12-31T13:46:49.564Z,51.90
2022-12-31T13:52:06.678Z,51.05
2022-12-31T13:57:39.602Z,53.80
2022-12-31T14:02:49.359Z,67.93
2022-12-31T14:07:57.821Z,59.03
2022-12-31T14:13:21.113Z,215.90
2022-12-31T14:18:59.895Z,187.75
2022-12-31T14:24:28.552Z,108.65
2022-12-31T14:29:50.289Z,39.55
2022-12-31T14:35:01.490Z,8.88
2022-12-31T14:40:19.731Z,15.52
2022-12-31T14:45:41.005Z,249.05
2022-12-31T14:50:45.516Z,88.00
2022-12-31T14:56:00.357Z,29.60
2022-12-31T15:01:22.686Z,12.32
2022-12-31T15:06:39.024Z,53.42
2022-12-31T15:12:07.248Z,57.13
2022-12-31T15:17:24.778Z,37.35
2022-12-31T15:22:47.103Z,20.45
2022-12-31T15:27:50.061Z,24.95
2022-12-31T15:32:59.668Z,21.77
2022-12-31T15:38:11.102Z,19.52
2022-12-31T15:43:37.414Z,20.30
2022-12-31T15:48:55.461Z,29.77
2022-12-31T15:54:04.702Z,31.77
2022-12-31T15:59:30.061Z,42.35
2022-12-31T16:04:58.303Z,32.90
2022-12-31T16:10:09.652Z,15.32
2022-12-31T16:15:37.142Z,20.90
2022-12-31T16:21:08.444Z,16.40
2022-12-31T16:26:19.724Z,26.00
2022-12-31T16:32:02.260Z,14.05
2022-12-31T16:37:33.219Z,11.32
2022-12-31T16:42:58.041Z,10.32
2022-12-31T16:48:35.608Z,10.25
2022-12-31T16:53:54.293Z,12.73
2022-12-31T16:59:18.799Z,14.30
2022-12-31T17:04:56.135Z,14.90
2022-12-31T17:10:09.985Z,15.90
2022-12-31T17:15:26.799Z,16.27
2022-12-31T17:20:32.046Z,16.90
2022-12-31T17:25:37.267Z,19.17
2022-12-31T17:30:41.864Z,14.35
2022-12-31T17:35:45.530Z,22.67
2022-12-31T17:41:27.778Z,16.73
2022-12-31T17:46:34.201Z,15.00
2022-12-31T17:51:36.847Z,26.20
2022-12-31T17:56:39.687Z,29.65
2022-12-31T18:01:43.992Z,47.60
2022-12-31T18:06:49.864Z,48.92
2022-12-31T18:11:56.816Z,52.75
2022-12-31T18:17:15.347Z,18.20
2022-12-31T18:22:19.699Z,15.23
2022-12-31T18:27:23.316Z,30.30
2022-12-31T18:32:27.828Z,44.22
2022-12-31T18:37:32.204Z,41.33
2022-12-31T18:42:34.614Z,43.80
2022-12-31T18:47:37.940Z,53.17
2022-12-31T18:52:40.400Z,33.13
2022-12-31T18:57:42.795Z,30.63
2022-12-31T19:02:45.164Z,22.42
2022-12-31T19:07:47.705Z,12.23
2022-12-31T19:12:51.521Z,10.37
2022-12-31T19:17:54.081Z,8.80
2022-12-31T19:22:57.020Z,10.67
2022-12-31T19:28:00.222Z,7.10
2022-12-31T19:33:02.725Z,7.50
2022-12-31T19:38:06.521Z,6.83
2022-12-31T19:43:13.242Z,5.50
2022-12-31T19:48:19.965Z,3.90
2022-12-31T19:53:25.742Z,4.30
2022-12-31T19:58:28.274Z,5.20
2022-12-31T20:03:32.864Z,5.10
2022-12-31T20:08:37.306Z,6.47
2022-12-31T20:13:42.268Z,13.68
2022-12-31T20:18:46.239Z,9.07
2022-12-31T20:23:50.408Z,9.60
2022-12-31T20:28:53.749Z,10.25
2022-12-31T20:38:59.511Z,11.30
2022-12-31T20:44:01.990Z,10.37
2022-12-31T20:49:04.549Z,21.40
2022-12-31T21:04:14.135Z,8.10
2022-12-31T21:09:16.850Z,7.10
2022-12-31T21:14:19.560Z,6.47
2022-12-31T21:19:22.327Z,7.57
2022-12-31T21:24:24.918Z,8.47
2022-12-31T21:29:31.360Z,12.13
2022-12-31T21:34:36.885Z,15.32
2022-12-31T21:39:39.253Z,10.77
2022-12-31T21:44:41.832Z,8.60
2022-12-31T21:49:45.704Z,8.95
2022-12-31T21:55:07.833Z,11.32
2022-12-31T22:00:42.319Z,8.98
2022-12-31T22:05:47.544Z,7.53
2022-12-31T22:10:52.836Z,7.22
2022-12-31T22:16:04.351Z,6.40
2022-12-31T22:21:20.399Z,5.95
2022-12-31T22:26:25.785Z,5.78
2022-12-31T22:31:32.517Z,7.53
2022-12-31T22:36:35.191Z,6.97
2022-12-31T22:41:40.863Z,5.60
2022-12-31T22:46:43.391Z,5.25
2022-12-31T22:51:55.875Z,4.87
2022-12-31T22:57:01.333Z,6.70
2022-12-31T23:02:18.462Z,6.03
2022-12-31T23:07:20.946Z,33.00
2022-12-31T23:12:32.031Z,32.30
2022-12-31T23:17:53.499Z,10.55
2022-12-31T23:23:11.560Z,7.70
2022-12-31T23:28:17.616Z,5.40
2022-12-31T23:33:23.238Z,4.97
2022-12-31T23:38:25.662Z,7.05
2022-12-31T23:43:28.249Z,7.47
2022-12-31T23:48:30.772Z,5.43
2022-12-31T23:53:33.283Z,5.80
2022-12-31T23:58:36.224Z,5.50
